createdAt,value
2017-10-03T00:01:49.004Z,24.43
2017-10-03T00:04:16.577Z,32.80
2017-10-03T00:06:44.154Z,23.33
2017-10-03T00:09:12.478Z,23.40
2017-10-03T00:11:40.120Z,25.27
2017-10-03T00:14:07.753Z,20.40
2017-10-03T00:16:35.435Z,30.10
2017-10-03T00:19:04.659Z,17.57
2017-10-03T00:21:32.522Z,26.57
2017-10-03T00:24:00.125Z,19.27
2017-10-03T00:26:27.733Z,21.77
2017-10-03T00:28:55.346Z,26.03
2017-10-03T00:31:22.929Z,25.97
2017-10-03T00:33:51.303Z,31.27
2017-10-03T00:36:19.317Z,23.47
2017-10-03T00:38:46.912Z,28.70
2017-10-03T00:41:14.510Z,28.77
2017-10-03T00:43:42.877Z,33.87
2017-10-03T00:46:10.474Z,25.97
2017-10-03T00:48:38.033Z,21.77
2017-10-03T00:51:06.019Z,26.30
2017-10-03T00:53:33.597Z,25.30
2017-10-03T00:56:01.150Z,37.03
2017-10-03T00:58:28.714Z,20.23
2017-10-03T01:00:56.667Z,31.60
2017-10-03T01:03:24.234Z,34.83
2017-10-03T01:05:51.810Z,24.73
2017-10-03T01:08:19.400Z,27.67
2017-10-03T01:10:46.956Z,26.10
2017-10-03T01:13:14.645Z,35.93
2017-10-03T01:15:43.070Z,15.70
2017-10-03T01:18:10.658Z,34.70
2017-10-03T01:20:38.311Z,21.83
2017-10-03T01:23:06.451Z,22.77
2017-10-03T01:25:34.297Z,35.17
2017-10-03T01:28:02.666Z,19.77
2017-10-03T01:30:31.022Z,17.47
2017-10-03T01:32:58.621Z,26.23
2017-10-03T01:35:26.193Z,19.53
2017-10-03T01:38:05.746Z,28.10
2017-10-03T01:40:33.345Z,27.13
2017-10-03T01:43:00.939Z,15.40
2017-10-03T01:45:29.276Z,17.47
2017-10-03T01:47:56.925Z,16.70
2017-10-03T01:50:24.507Z,15.50
2017-10-03T01:52:52.066Z,14.13
2017-10-03T01:55:19.648Z,14.30
2017-10-03T01:57:47.280Z,17.53
2017-10-03T02:00:14.846Z,15.63
2017-10-03T02:02:42.423Z,19.30
2017-10-03T02:05:10.005Z,18.63
2017-10-03T02:07:38.328Z,10.90
2017-10-03T02:10:05.916Z,13.03
2017-10-03T02:12:34.162Z,17.93
2017-10-03T02:15:01.742Z,10.07
2017-10-03T02:17:29.317Z,13.10
2017-10-03T02:19:56.882Z,14.80
2017-10-03T02:22:24.459Z,9.87
2017-10-03T02:24:52.841Z,13.53
2017-10-03T02:27:21.242Z,12.10
2017-10-03T02:29:48.827Z,5.90
2017-10-03T02:32:16.445Z,10.37
2017-10-03T02:34:44.785Z,9.47
2017-10-03T02:37:12.405Z,13.20
2017-10-03T02:39:39.966Z,7.23
2017-10-03T02:42:07.546Z,9.87
2017-10-03T02:44:35.118Z,5.93
2017-10-03T02:47:02.688Z,14.33
2017-10-03T02:49:30.319Z,14.83
2017-10-03T02:51:58.083Z,6.13
2017-10-03T02:54:25.655Z,10.90
2017-10-03T02:56:53.335Z,10.23
2017-10-03T02:59:21.269Z,8.30
2017-10-03T03:01:48.804Z,7.33
2017-10-03T03:04:17.148Z,8.17
2017-10-03T03:06:44.722Z,7.33
2017-10-03T03:09:12.326Z,11.70
2017-10-03T03:11:39.959Z,7.20
2017-10-03T03:14:07.523Z,11.53
2017-10-03T03:16:35.106Z,9.47
2017-10-03T03:19:02.661Z,14.27
2017-10-03T03:21:31.311Z,11.90
2017-10-03T03:23:58.885Z,9.90
2017-10-03T03:26:26.463Z,8.10
2017-10-03T03:28:54.809Z,8.00
2017-10-03T03:31:22.374Z,11.67
2017-10-03T03:33:49.956Z,11.13
2017-10-03T03:36:18.330Z,15.43
2017-10-03T03:38:45.914Z,15.50
2017-10-03T03:41:13.474Z,13.20
2017-10-03T03:43:41.047Z,17.73
2017-10-03T03:46:08.616Z,16.07
2017-10-03T03:48:36.975Z,19.83
2017-10-03T03:51:05.323Z,19.10
2017-10-03T03:53:32.911Z,21.60
2017-10-03T03:56:01.254Z,22.50
2017-10-03T03:58:28.887Z,17.50
2017-10-03T04:00:56.471Z,26.40
2017-10-03T04:03:24.037Z,27.07
2017-10-03T04:05:51.619Z,25.63
2017-10-03T04:08:19.965Z,26.13
2017-10-03T04:10:47.549Z,23.63
2017-10-03T04:13:15.138Z,28.83
2017-10-03T04:15:42.744Z,27.43
2017-10-03T04:18:10.325Z,28.00
2017-10-03T04:20:37.921Z,28.03
2017-10-03T04:23:06.265Z,32.93
2017-10-03T04:25:33.871Z,31.50
2017-10-03T04:28:01.464Z,27.97
2017-10-03T04:30:29.053Z,27.10
2017-10-03T04:32:56.639Z,36.67
2017-10-03T04:35:24.997Z,31.17
2017-10-03T04:37:52.569Z,30.03
2017-10-03T04:40:20.917Z,30.20
2017-10-03T04:42:48.698Z,26.40
2017-10-03T04:45:16.280Z,35.37
2017-10-03T04:47:44.818Z,25.20
2017-10-03T04:50:12.384Z,27.10
2017-10-03T04:52:39.970Z,37.13
2017-10-03T04:55:07.737Z,28.20
2017-10-03T04:57:35.302Z,30.83
2017-10-03T05:00:02.935Z,38.00
2017-10-03T05:02:30.491Z,26.20
2017-10-03T05:04:58.071Z,40.33
2017-10-03T05:07:26.202Z,32.80
2017-10-03T05:09:53.790Z,37.13
2017-10-03T05:12:21.372Z,32.50
2017-10-03T05:14:49.146Z,33.63
2017-10-03T05:17:17.266Z,29.17
2017-10-03T05:19:44.856Z,34.30
2017-10-03T05:22:12.431Z,23.73
2017-10-03T05:24:40.014Z,23.10
2017-10-03T05:27:08.342Z,21.83
2017-10-03T05:29:35.914Z,25.97
2017-10-03T05:32:03.572Z,32.67
2017-10-03T05:34:31.129Z,24.57
2017-10-03T05:36:58.692Z,26.80
2017-10-03T05:39:26.307Z,32.87
2017-10-03T05:41:54.657Z,21.70
2017-10-03T05:44:22.259Z,25.20
2017-10-03T05:46:49.832Z,26.83
2017-10-03T05:49:17.434Z,25.27
2017-10-03T05:51:45.008Z,23.07
2017-10-03T05:54:12.563Z,22.40
2017-10-03T05:56:40.141Z,27.93
2017-10-03T05:59:08.482Z,24.63
2017-10-03T06:01:36.874Z,24.10
2017-10-03T06:04:04.429Z,20.37
2017-10-03T06:06:32.030Z,20.60
2017-10-03T06:09:00.545Z,28.30
2017-10-03T06:11:28.902Z,24.77
2017-10-03T06:13:56.486Z,25.40
2017-10-03T06:16:24.838Z,18.73
2017-10-03T06:18:52.522Z,18.97
2017-10-03T06:21:20.866Z,19.83
2017-10-03T06:23:49.205Z,19.63
2017-10-03T06:26:16.812Z,16.57
2017-10-03T06:28:45.186Z,16.40
2017-10-03T06:31:13.624Z,16.57
2017-10-03T06:33:41.198Z,16.07
2017-10-03T06:36:08.807Z,16.40
2017-10-03T06:38:36.369Z,18.37
2017-10-03T06:41:03.949Z,15.00
2017-10-03T06:43:32.286Z,15.40
2017-10-03T06:46:00.632Z,21.57
2017-10-03T06:48:28.204Z,14.00
2017-10-03T06:50:55.767Z,13.90
2017-10-03T06:53:23.360Z,13.53
2017-10-03T06:55:51.957Z,18.53
2017-10-03T06:58:19.534Z,16.10
2017-10-03T07:00:47.107Z,23.70
2017-10-03T07:03:14.677Z,16.03
2017-10-03T07:05:42.253Z,20.40
2017-10-03T07:08:09.837Z,21.20
2017-10-03T07:10:38.176Z,19.10
2017-10-03T07:13:05.804Z,18.80
2017-10-03T07:15:33.386Z,30.10
2017-10-03T07:18:00.955Z,21.03
2017-10-03T07:20:28.542Z,17.53
2017-10-03T07:22:56.119Z,29.13
2017-10-03T07:25:24.236Z,30.20
2017-10-03T07:27:51.826Z,27.50
2017-10-03T07:30:19.437Z,29.50
2017-10-03T07:32:47.054Z,23.43
2017-10-03T07:35:14.679Z,24.17
2017-10-03T07:37:42.294Z,26.40
2017-10-03T07:40:10.651Z,29.23
2017-10-03T07:42:38.235Z,24.53
2017-10-03T07:45:05.825Z,25.43
2017-10-03T07:47:33.497Z,26.90
2017-10-03T07:50:01.075Z,26.00
2017-10-03T07:52:28.658Z,26.50
2017-10-03T07:54:56.251Z,22.13
2017-10-03T07:57:24.609Z,24.53
2017-10-03T07:59:52.223Z,26.07
2017-10-03T08:02:19.810Z,25.33
2017-10-03T08:04:47.399Z,32.40
2017-10-03T08:07:14.993Z,27.40
2017-10-03T08:09:42.573Z,28.70
2017-10-03T08:12:10.145Z,23.83
2017-10-03T08:14:37.737Z,27.77
2017-10-03T08:17:05.334Z,21.93
2017-10-03T08:19:33.690Z,23.80
2017-10-03T08:22:01.282Z,26.57
2017-10-03T08:24:29.621Z,24.30
2017-10-03T08:26:57.242Z,19.90
2017-10-03T08:29:24.823Z,21.93
2017-10-03T08:31:52.406Z,24.23
2017-10-03T08:34:20.013Z,17.47
2017-10-03T08:36:48.369Z,21.73
2017-10-03T08:39:16.721Z,17.53
2017-10-03T08:41:44.317Z,19.50
2017-10-03T08:44:12.647Z,20.10
2017-10-03T08:46:40.255Z,22.27
2017-10-03T08:49:08.594Z,21.37
2017-10-03T08:51:36.208Z,20.63
2017-10-03T08:54:03.988Z,23.73
2017-10-03T08:56:31.717Z,21.27
2017-10-03T08:58:59.299Z,31.30
2017-10-03T09:01:26.865Z,24.37
2017-10-03T09:03:54.472Z,20.30
2017-10-03T09:06:22.080Z,18.30
2017-10-03T09:08:50.440Z,24.90
2017-10-03T09:11:18.790Z,21.67
2017-10-03T09:13:46.378Z,33.83
2017-10-03T09:16:13.962Z,22.23
2017-10-03T09:18:42.311Z,30.47
2017-10-03T09:21:09.870Z,20.13
2017-10-03T09:23:37.577Z,15.90
2017-10-03T09:26:05.168Z,23.17
2017-10-03T09:28:32.760Z,19.47
2017-10-03T09:31:00.693Z,14.27
2017-10-03T09:33:29.114Z,24.83
2017-10-03T09:35:57.156Z,18.07
2017-10-03T09:38:24.742Z,17.37
2017-10-03T09:40:52.834Z,16.87
2017-10-03T09:43:21.206Z,13.10
2017-10-03T09:45:49.550Z,14.63
2017-10-03T09:48:17.151Z,19.47
2017-10-03T09:50:45.529Z,15.90
2017-10-03T09:53:13.899Z,23.83
2017-10-03T09:55:41.509Z,21.50
2017-10-03T09:58:09.102Z,17.10
2017-10-03T10:00:36.655Z,13.87
2017-10-03T10:03:04.246Z,12.23
2017-10-03T10:05:32.594Z,17.97
2017-10-03T10:08:00.232Z,14.40
2017-10-03T10:10:27.811Z,18.13
2017-10-03T10:12:55.557Z,13.87
2017-10-03T10:15:23.390Z,19.13
2017-10-03T10:17:51.760Z,12.47
2017-10-03T10:20:20.118Z,16.03
2017-10-03T10:22:47.765Z,13.17
2017-10-03T10:25:15.346Z,18.00
2017-10-03T10:27:42.930Z,13.30
2017-10-03T10:30:11.359Z,11.33
2017-10-03T10:32:38.940Z,11.30
2017-10-03T10:35:06.515Z,14.80
2017-10-03T10:37:34.117Z,6.73
2017-10-03T10:40:01.699Z,14.03
2017-10-03T10:42:29.301Z,12.40
2017-10-03T10:44:56.890Z,13.50
2017-10-03T10:47:25.247Z,13.23
2017-10-03T10:49:52.850Z,14.00
2017-10-03T10:52:20.421Z,12.03
2017-10-03T10:54:47.996Z,11.73
2017-10-03T10:57:15.565Z,8.50
2017-10-03T10:59:43.363Z,10.77
2017-10-03T11:02:10.964Z,5.57
2017-10-03T11:04:38.549Z,16.97
2017-10-03T11:07:06.138Z,11.67
2017-10-03T11:09:33.768Z,13.33
2017-10-03T11:12:01.522Z,10.67
2017-10-03T11:14:29.123Z,11.80
2017-10-03T11:16:56.678Z,21.50
2017-10-03T11:19:25.158Z,12.83
2017-10-03T11:21:52.742Z,8.53
2017-10-03T11:24:32.933Z,21.03
2017-10-03T11:27:00.502Z,5.77
2017-10-03T11:29:28.101Z,11.13
2017-10-03T11:31:55.718Z,12.73
2017-10-03T11:34:23.307Z,6.47
2017-10-03T11:36:50.912Z,12.73
2017-10-03T11:39:19.342Z,28.23
2017-10-03T11:41:46.919Z,18.10
2017-10-03T11:44:14.723Z,17.13
2017-10-03T11:46:43.473Z,12.40
2017-10-03T11:49:11.058Z,17.70
2017-10-03T11:51:39.445Z,12.80
2017-10-03T11:54:07.845Z,8.53
2017-10-03T11:56:35.421Z,8.40
2017-10-03T11:59:03.019Z,10.83
2017-10-03T12:01:30.594Z,9.80
2017-10-03T12:03:58.173Z,5.90
2017-10-03T12:06:26.895Z,16.20
2017-10-03T12:08:54.473Z,5.90
2017-10-03T12:11:22.063Z,15.53
2017-10-03T12:13:49.662Z,9.33
2017-10-03T12:16:17.261Z,7.93
2017-10-03T12:18:44.896Z,5.97
2017-10-03T12:21:12.474Z,7.53
2017-10-03T12:23:40.065Z,12.63
2017-10-03T12:26:07.672Z,8.40
2017-10-03T12:28:35.237Z,8.60
2017-10-03T12:31:03.082Z,9.13
2017-10-03T12:33:31.409Z,6.37
2017-10-03T12:35:58.986Z,11.07
2017-10-03T12:38:26.584Z,11.60
2017-10-03T12:40:54.206Z,10.00
2017-10-03T12:43:21.861Z,11.37
2017-10-03T12:45:49.450Z,7.70
2017-10-03T12:48:17.030Z,8.20
2017-10-03T12:50:45.401Z,10.60
2017-10-03T12:53:13.746Z,6.53
2017-10-03T12:55:41.587Z,7.83
2017-10-03T12:58:09.166Z,11.50
2017-10-03T13:00:36.750Z,9.93
2017-10-03T13:03:04.314Z,8.73
2017-10-03T13:05:31.926Z,10.03
2017-10-03T13:07:59.559Z,13.83
2017-10-03T13:10:27.941Z,9.63
2017-10-03T13:12:56.289Z,12.13
2017-10-03T13:15:23.858Z,11.50
2017-10-03T13:17:51.541Z,4.20
2017-10-03T13:20:19.870Z,5.90
2017-10-03T13:22:47.496Z,9.00
2017-10-03T13:25:15.824Z,6.70
2017-10-03T13:27:43.536Z,6.40
2017-10-03T13:30:11.331Z,10.63
2017-10-03T13:32:39.204Z,7.17
2017-10-03T13:35:06.772Z,3.77
2017-10-03T13:37:34.374Z,10.33
2017-10-03T13:40:02.713Z,6.00
2017-10-03T13:42:30.292Z,6.23
2017-10-03T13:44:58.049Z,5.70
2017-10-03T13:47:25.634Z,5.40
2017-10-03T13:49:53.246Z,9.43
2017-10-03T13:52:21.762Z,7.63
2017-10-03T13:54:49.353Z,10.33
2017-10-03T13:57:17.682Z,6.90
2017-10-03T13:59:45.309Z,10.70
2017-10-03T14:02:12.913Z,10.80
2017-10-03T14:04:40.539Z,11.20
2017-10-03T14:07:08.123Z,20.23
2017-10-03T14:09:35.691Z,6.80
2017-10-03T14:12:03.302Z,10.37
2017-10-03T14:14:31.659Z,9.73
2017-10-03T14:16:59.241Z,12.67
2017-10-03T14:19:27.591Z,11.43
2017-10-03T14:21:55.201Z,7.13
2017-10-03T14:24:22.962Z,10.03
2017-10-03T14:26:50.568Z,9.73
2017-10-03T14:29:18.162Z,7.63
2017-10-03T14:31:45.958Z,10.17
2017-10-03T14:34:13.543Z,19.93
2017-10-03T14:36:41.136Z,7.20
2017-10-03T14:39:08.726Z,6.40
2017-10-03T14:41:37.094Z,7.37
2017-10-03T14:44:05.481Z,7.77
2017-10-03T14:46:34.042Z,9.37
2017-10-03T14:49:01.636Z,8.43
2017-10-03T14:51:29.250Z,4.47
2017-10-03T14:53:57.065Z,7.63
2017-10-03T14:56:24.617Z,6.47
2017-10-03T14:58:52.988Z,14.27
2017-10-03T15:01:21.384Z,5.63
2017-10-03T15:03:49.014Z,11.87
2017-10-03T15:06:16.784Z,6.13
2017-10-03T15:08:45.536Z,4.90
2017-10-03T15:11:13.141Z,7.70
2017-10-03T15:13:41.465Z,7.43
2017-10-03T15:16:09.071Z,9.67
2017-10-03T15:18:36.907Z,4.27
2017-10-03T15:21:04.486Z,7.20
2017-10-03T15:23:32.314Z,6.20
2017-10-03T15:25:59.898Z,8.40
2017-10-03T15:28:27.498Z,13.53
2017-10-03T15:30:55.874Z,8.00
2017-10-03T15:33:24.262Z,13.13
2017-10-03T15:35:52.660Z,7.37
2017-10-03T15:38:20.250Z,9.10
2017-10-03T15:40:47.870Z,8.10
2017-10-03T15:43:16.255Z,5.77
2017-10-03T15:45:44.610Z,6.13
2017-10-03T15:48:12.219Z,8.47
2017-10-03T15:50:39.797Z,7.23
2017-10-03T15:53:07.373Z,7.73
2017-10-03T15:55:34.963Z,6.30
2017-10-03T15:58:03.314Z,7.43
2017-10-03T16:00:30.928Z,7.13
2017-10-03T16:02:59.265Z,5.60
2017-10-03T16:05:26.837Z,5.97
2017-10-03T16:07:55.319Z,6.13
2017-10-03T16:10:22.900Z,9.90
2017-10-03T16:12:51.260Z,8.27
2017-10-03T16:15:18.845Z,6.77
2017-10-03T16:17:47.228Z,7.83
2017-10-03T16:20:15.560Z,8.30
2017-10-03T16:22:43.233Z,7.83
2017-10-03T16:25:10.792Z,6.90
2017-10-03T16:27:38.423Z,6.67
2017-10-03T16:30:05.995Z,10.23
2017-10-03T16:32:33.661Z,13.33
2017-10-03T16:35:01.275Z,8.03
2017-10-03T16:37:28.922Z,13.93
2017-10-03T16:39:57.306Z,15.93
2017-10-03T16:42:25.655Z,7.73
2017-10-03T16:44:53.214Z,11.43
2017-10-03T16:47:20.819Z,10.33
2017-10-03T16:49:48.467Z,11.70
2017-10-03T16:52:16.839Z,13.50
2017-10-03T16:54:44.435Z,8.23
2017-10-03T16:57:12.039Z,9.33
2017-10-03T16:59:39.649Z,7.77
2017-10-03T17:02:07.534Z,9.67
2017-10-03T17:04:35.136Z,11.03
2017-10-03T17:07:02.891Z,11.53
2017-10-03T17:09:30.505Z,11.60
2017-10-03T17:11:58.103Z,9.63
2017-10-03T17:14:25.684Z,8.33
2017-10-03T17:16:53.280Z,9.50
2017-10-03T17:19:21.646Z,8.70
2017-10-03T17:21:49.246Z,7.73
2017-10-03T17:24:16.839Z,11.80
2017-10-03T17:26:44.439Z,16.87
2017-10-03T17:29:12.803Z,13.07
2017-10-03T17:31:40.436Z,13.40
2017-10-03T17:34:08.051Z,9.30
2017-10-03T17:36:36.457Z,12.20
2017-10-03T17:39:04.272Z,24.43
2017-10-03T17:41:32.047Z,9.80
2017-10-03T17:44:00.405Z,11.90
2017-10-03T17:46:28.929Z,14.10
2017-10-03T17:48:56.531Z,12.13
2017-10-03T17:51:24.935Z,15.35
2017-10-03T17:53:52.530Z,9.47
2017-10-03T17:56:20.906Z,13.60
2017-10-03T17:58:49.280Z,12.73
2017-10-03T18:01:17.795Z,8.30
2017-10-03T18:03:45.425Z,11.20
2017-10-03T18:06:13.792Z,9.40
2017-10-03T18:08:43.023Z,10.20
2017-10-03T18:11:10.629Z,16.90
2017-10-03T18:13:38.229Z,14.00
2017-10-03T18:16:06.610Z,14.20
2017-10-03T18:18:34.940Z,14.03
2017-10-03T18:21:02.577Z,11.37
2017-10-03T18:23:30.216Z,12.20
2017-10-03T18:25:58.596Z,15.30
2017-10-03T18:28:26.961Z,13.00
2017-10-03T18:30:55.405Z,7.73
2017-10-03T18:33:23.000Z,15.83
2017-10-03T18:35:50.580Z,20.57
2017-10-03T18:38:18.999Z,11.80
2017-10-03T18:40:46.583Z,8.90
2017-10-03T18:43:14.423Z,12.90
2017-10-03T18:45:42.014Z,13.73
2017-10-03T18:48:10.393Z,9.93
2017-10-03T18:50:37.961Z,12.23
2017-10-03T18:53:05.619Z,15.13
2017-10-03T18:55:33.410Z,14.83
2017-10-03T18:58:01.762Z,10.20
2017-10-03T19:00:29.349Z,13.20
2017-10-03T19:02:57.874Z,14.40
2017-10-03T19:05:25.479Z,18.10
2017-10-03T19:07:53.297Z,11.83
2017-10-03T19:10:20.986Z,13.03
2017-10-03T19:12:48.602Z,22.30
2017-10-03T19:15:16.952Z,14.90
2017-10-03T19:17:44.584Z,19.90
2017-10-03T19:20:12.178Z,13.10
2017-10-03T19:22:40.895Z,18.80
2017-10-03T19:25:09.276Z,12.73
2017-10-03T19:27:36.870Z,13.33
2017-10-03T19:30:04.473Z,12.87
2017-10-03T19:32:32.838Z,17.30
2017-10-03T19:35:00.461Z,17.07
2017-10-03T19:37:28.087Z,16.50
2017-10-03T19:39:56.485Z,13.23
2017-10-03T19:42:24.082Z,25.30
2017-10-03T19:44:51.715Z,20.50
2017-10-03T19:47:19.304Z,14.70
2017-10-03T19:49:46.932Z,17.00
2017-10-03T19:52:14.549Z,19.77
2017-10-03T19:54:42.480Z,14.07
2017-10-03T19:57:10.086Z,14.77
2017-10-03T19:59:37.685Z,10.67
2017-10-03T20:02:05.283Z,13.70
2017-10-03T20:04:32.897Z,13.30
2017-10-03T20:07:00.475Z,13.23
2017-10-03T20:09:28.334Z,17.23
2017-10-03T20:11:55.912Z,18.10
2017-10-03T20:14:23.535Z,14.80
2017-10-03T20:16:51.912Z,12.20
2017-10-03T20:19:20.240Z,14.80
2017-10-03T20:21:47.859Z,12.73
2017-10-03T20:24:16.194Z,22.27
2017-10-03T20:26:43.794Z,13.13
2017-10-03T20:29:12.535Z,15.30
2017-10-03T20:31:40.168Z,20.70
2017-10-03T20:34:07.738Z,18.93
2017-10-03T20:36:35.338Z,11.33
2017-10-03T20:39:02.952Z,20.30
2017-10-03T20:41:30.540Z,13.47
2017-10-03T20:43:58.138Z,15.10
2017-10-03T20:46:25.762Z,24.67
2017-10-03T20:48:53.388Z,16.90
2017-10-03T20:51:21.727Z,16.13
2017-10-03T20:53:49.331Z,17.30
2017-10-03T20:56:17.745Z,11.10
2017-10-03T20:58:45.339Z,16.70
2017-10-03T21:01:12.930Z,18.70
2017-10-03T21:03:41.314Z,14.63
2017-10-03T21:06:09.704Z,15.70
2017-10-03T21:08:37.319Z,14.50
2017-10-03T21:11:05.539Z,11.20
2017-10-03T21:13:33.160Z,28.97
2017-10-03T21:16:00.721Z,16.60
2017-10-03T21:18:28.287Z,18.60
2017-10-03T21:20:55.894Z,12.00
2017-10-03T21:23:23.575Z,17.83
2017-10-03T21:25:51.162Z,14.73
2017-10-03T21:28:18.773Z,15.60
2017-10-03T21:30:46.392Z,13.67
2017-10-03T21:33:14.007Z,13.93
2017-10-03T21:35:41.569Z,11.23
2017-10-03T21:38:09.158Z,14.97
2017-10-03T21:40:36.749Z,9.43
2017-10-03T21:43:11.785Z,17.30
2017-10-03T21:45:39.382Z,12.90
2017-10-03T21:48:06.952Z,7.90
2017-10-03T21:50:34.550Z,12.87
2017-10-03T21:53:02.109Z,14.10
2017-10-03T21:55:29.851Z,17.90
2017-10-03T21:57:58.195Z,10.40
2017-10-03T22:00:25.791Z,22.57
2017-10-03T22:02:53.369Z,17.10
2017-10-03T22:05:20.957Z,11.97
2017-10-03T22:07:49.294Z,11.37
2017-10-03T22:10:16.889Z,10.23
2017-10-03T22:12:44.469Z,15.07
2017-10-03T22:15:12.823Z,14.23
2017-10-03T22:17:40.440Z,15.60
2017-10-03T22:20:08.206Z,13.77
2017-10-03T22:22:35.781Z,40.87
2017-10-03T22:25:03.377Z,13.47
2017-10-03T22:27:30.981Z,8.93
2017-10-03T22:29:58.564Z,10.37
2017-10-03T22:32:26.142Z,21.57
2017-10-03T22:34:53.723Z,7.80
2017-10-03T22:37:21.301Z,15.10
2017-10-03T22:39:49.683Z,18.63
2017-10-03T22:42:18.010Z,15.10
2017-10-03T22:44:45.765Z,10.17
2017-10-03T22:47:13.366Z,13.97
2017-10-03T22:49:40.925Z,14.00
2017-10-03T22:52:14.130Z,11.50
2017-10-03T22:54:42.476Z,10.47
2017-10-03T22:57:10.110Z,21.57
2017-10-03T22:59:37.676Z,17.73
2017-10-03T23:02:05.243Z,15.50
2017-10-03T23:04:32.840Z,10.63
2017-10-03T23:07:00.435Z,14.40
2017-10-03T23:09:28.028Z,13.10
2017-10-03T23:11:55.698Z,11.00
2017-10-03T23:14:23.291Z,15.00
2017-10-03T23:16:50.881Z,14.33
2017-10-03T23:19:19.434Z,13.20
2017-10-03T23:21:47.016Z,11.20
2017-10-03T23:24:15.377Z,19.07
2017-10-03T23:26:43.865Z,13.67
2017-10-03T23:29:12.197Z,8.77
2017-10-03T23:31:39.790Z,12.90
2017-10-03T23:34:07.353Z,9.77
2017-10-03T23:36:34.949Z,12.53
2017-10-03T23:39:02.534Z,13.70
2017-10-03T23:41:30.125Z,11.60
2017-10-03T23:43:57.954Z,14.43
2017-10-03T23:46:25.522Z,14.00
2017-10-03T23:48:53.124Z,11.20
2017-10-03T23:51:20.690Z,20.10
2017-10-03T23:53:48.266Z,13.50
2017-10-03T23:56:16.606Z,21.60
2017-10-03T23:58:44.174Z,12.80
